To NAV CANADA Home Page Login to a new session Search on AWWS site Feedback and Comments Disclaimer Vers la page française équivalente Tips FAQ What's new on the site To the Forecasts and Observations / NOTAM section To "File a Flight Plan" website Publications and other links Update of the User's profile FIC Telephone Numbers My Weather Data Folder Route Weather Data Regional Weather Data Local Weather Data To the Forecasts and Observations / NOTAM section
Request Generated 06/26/2017 at 03:30:19 UTC . Weather information available at that time is displayed.


Go to a specific product

Save this request - Inactive

METAR/TAF

OTTAWA/GATINEAU/QC    

LWIS CYND 260300Z AUTO 29006KT 14/13 A2989=
LWIS CYND 260200Z AUTO 27005KT 15/14 A2989=
METAR CYND 260100Z 29004KT 10SM FEW008 SCT021 BKN090 BKN190 15/14
A2988 RMK SF1SC3AC2CI2 SF TR DIST SH W LAST STFD OBS/NEXT 261100
UTC SLP120 DENSITY ALT 300FT=

*** REMARK        : Forecast period has ended; this was the last TAF issued
*** REMARQUE : La période de prévision est échue; ceci était le dernier TAF qui a été émis
TAF CYND 251743Z 2518/2601 18005KT P6SM BKN030 BKN060 TEMPO 2518/2523
VRB15G30KT 2SM TSRA BR BKN020 OVC050CB
FM252300 27007KT P6SM SCT008 BKN025 TEMPO 2523/2601 5SM -SHRA BR
BKN008 OVC020
RMK NXT FCST WILL BE ISSUED AT 261245Z=

OTTAWA/MACDONALD-CARTIER INTL/ON    

SPECI CYOW 260325Z 28008KT 15SM -RA SCT065 BKN080 13/13 A2991 RMK
SC3AC4 SLP129=
METAR CYOW 260300Z 26006KT 15SM FEW015 BKN065 BKN070 13/13 A2991 RMK
SC1SC4AC2 SLP130=
METAR CYOW 260200Z 26007KT 15SM FEW015 SCT160 BKN240 13/13 A2991 RMK
CU1AC2CI2 SLP130=
METAR CYOW 260100Z 26006KT 15SM FEW015 BKN130 BKN220 14/13 A2989 RMK
CU1AC4CI1 SLP125 DENSITY ALT 400FT=

TAF CYOW 260238Z 2603/2624 26007KT P6SM SCT015 BKN050 TEMPO 2603/2605
5SM -SHRA BR BKN015 OVC050
FM260600 28005KT P6SM FEW012 SCT040 PROB30 2607/2611 2SM BR
FM261500 24007KT P6SM BKN060
FM261900 18007KT P6SM BKN040 PROB30 2620/2624 2SM TSRA BR BKN020
OVC040CB
RMK NXT FCST BY 260600Z=


GRAPHICAL FA CLOUDS & WEATHER FORECASTS
To the Product Selector
Graphical FA gfacn33      

GRAPHICAL FA ICING, TURBULENCE & FREEZING LEVEL FORECASTS
To the Product Selector
Graphical FA gfacn33      

FDTEXT Low Level FD. Temperatures are not forecast for the 3,000-foot level.
To the Product Selector
STN YOW - OTTAWA. ONT for use 3000 6000 9000 12000 18000
FDCN01 CWAO FCST BASED ON 260000 DATA VALID 260600 05-09 3611 3619+02 3116-02 2919-08 2824-20
FDCN02 CWAO FCST BASED ON 260000 DATA VALID 261200 09-18 0107 3308+03 2912-03 2920-07 2727-20
FDCN03 CWAO FCST BASED ON 260000 DATA VALID 270000 18-05 1610 1710+04 1909-02 2313-08 2320-21



Your time UTC time
Weather data provided by Environment Canada and NAV CANADA